Park City, UT (84098)

9:43 PM MDT on May 06, 2015 (GMT -0600)
MesoWest | | Change Station
CLOSE
Current Station
Personal Weather Station
Location: Park City, UT
Elevation: 6400 ft
Nearby Weather Stations

Elev 6400 ft 40.73 °N, 111.54 °W | Updated 43 minutes ago

Overcast
Overcast
44 °F
Feels Like 42 °F
N
4
Wind Variable Wind from East
Gusts 6.0 mph

Today
High -- | Low -- °F
--% Chance of Precip.
Yesterday
High -- | Low -- °F
Precip. -- in
6:18 AM 8:27 PM
Waning Gibbous, 91% visible
Pressure 29.80 in
Visibility 10.0 miles
Clouds Scattered Clouds 3900 ft
Overcast 5000 ft
Windchill 42 °F
Dew Point 38 °F
Humidity 77%
Rainfall in
Snow Depth Not available.
UV 0 out of 12
Pollen 7.40 out of 12
Air Quality Not available.
Flu Activity Regional
METAR K36U 070335Z AUTO 00000KT 10SM SCT039 OVC050 07/05 A2980 RMK AO2

More Conditions Fewer Conditions

Pressure 29.80 in
Visibility 10.0 miles
Clouds Scattered Clouds 3900 ft
Overcast 5000 ft
Windchill 42 °F
Dew Point 38 °F
Humidity 77%
Rainfall in
Snow Depth Not available.
UV 0 out of 12
Pollen 7.40 out of 12
Air Quality Not available.
Flu Activity Regional
METAR K36U 070335Z AUTO 00000KT 10SM SCT039 OVC050 07/05 A2980 RMK AO2

More Conditions Fewer Conditions

Nowcast | as of 9:02 PM MDT on May 6, 2015

Scattered showers and thunderstorms will continue to move northerly across portions of northern Utah and southern Wyoming for the next few hours. The strongest activity at 900 PM was moving through Davis County into Morgan and Weber counties. Expect locally heavy rainfall...small hail...gusty winds and cloud to ground lightning with the strongest storms.

×

10-Day Weather Forecast

Almanac

Astronomy

May. 06, 2015 Rise Set
Actual Time
Civil Twilight
Nautical Twilight
Astronomical Twilight
Moon
Length of Visible Light
Length of Day
Tomorrow will be .
, % of the Moon is Illuminated

Today's Extremes

State Highs State Lows

Community

WunderPhotos

Upload Photos

1,819,106 photos uploaded!

WunderBlogs® & News

Nearby

Air Quality

  Air Quality AQ Index Pollutant
Not available.

Snow Depth

Station Depth Elevation

Earthquake Activity

City Distance Mag. Time & Date
Minimum magnitude displayed is 2.5.

Coastal Water Temperatures

Place Temperature

Stations

Nearby Weather Stations

Station Location Temp. Windchill Dew Point Humidity Wind Precip. Elev Updated Type